Time;durP1;ratioP1;P1;durP2;ratioP2;P2;SDS_P1;SDS_P2;PMS_P1;PMS_P2;Temp;Humidity;BMP_temperature;BMP_pressure;BME280_temperature;BME280_humidity;BME280_pressure;Samples;Min_cycle;Max_cycle;Signal;HPM_P1;HPM_P2
2023/10/14 00:02:22;;;;;;;;;;;;;;;27.77;42.65;94003.84;5059357;28;7591;-56
2023/10/14 00:04:58;;;;;;;;;;;;;;;27.76;42.96;93999.59;5062476;28;7123;-56
2023/10/14 00:07:38;;;;;;;;;;;;;;;27.73;42.55;94004.16;5052671;28;9412;-56
2023/10/14 00:10:06;;;;;;;;;;;;;;;27.74;42.93;94015.97;5062447;28;9073;-57
2023/10/14 00:12:32;;;;;;;;;;;;;;;27.73;42.75;94008.97;5058499;28;7029;-56
2023/10/14 00:15:05;;;;;;;;;;;;;;;27.74;42.55;94013.19;5060149;28;8754;-56
2023/10/14 00:17:41;;;;;;;;;;;;;;;27.71;42.77;94006.00;5051725;28;8854;-56
2023/10/14 00:20:10;;;;;;;;;;;;;;;27.72;42.54;94010.97;5093669;28;7306;-57
2023/10/14 00:22:58;;;;;;;;;;;;;;;27.72;43.10;94018.50;5086027;28;7266;-56
2023/10/14 00:25:32;;;;;;;;;;;;;;;27.71;42.80;94006.00;5060890;28;7039;-56
2023/10/14 00:28:19;;;;;;;;;;;;;;;27.70;42.97;93985.91;5037041;28;7284;-57
2023/10/14 00:30:47;;;;;;;;;;;;;;;27.70;42.92;93998.97;5051776;28;7115;-56
2023/10/14 00:33:25;;;;;;;;;;;;;;;27.69;42.85;94003.75;5039787;28;7236;-56
2023/10/14 00:35:56;;;;;;;;;;;;;;;27.69;42.81;94006.50;5069560;28;7068;-57
2023/10/14 00:38:23;;;;;;;;;;;;;;;27.70;42.43;94004.50;5069986;28;6996;-57
2023/10/14 00:40:59;;;;;;;;;;;;;;;27.69;43.06;93997.50;5063817;28;8821;-56
2023/10/14 00:43:25;;;;;;;;;;;;;;;27.69;42.96;93986.44;5034575;28;6989;-57
2023/10/14 00:45:52;;;;;;;;;;;;;;;27.69;43.28;93989.91;5065684;28;7415;-56
2023/10/14 00:48:27;;;;;;;;;;;;;;;27.68;42.71;93988.44;5055641;28;7330;-56
2023/10/14 00:50:59;;;;;;;;;;;;;;;27.68;42.94;93973.88;5052457;28;8209;-57
2023/10/14 00:53:28;;;;;;;;;;;;;;;27.68;43.29;93954.53;5068291;28;7409;-63
2023/10/14 00:56:11;;;;;;;;;;;;;;;27.68;42.94;93960.81;5051292;28;9111;-63
2023/10/14 00:58:44;;;;;;;;;;;;;;;27.68;43.14;93954.53;5045793;28;9174;-63
2023/10/14 01:01:28;;;;;;;;;;;;;;;27.66;43.31;93952.31;5057907;28;6974;-63
2023/10/14 01:04:19;;;;;;;;;;;;;;;27.63;42.97;93951.38;5046173;28;7264;-63
2023/10/14 01:07:06;;;;;;;;;;;;;;;27.64;43.27;93961.13;5056945;28;8853;-63
2023/10/14 01:12:38;;;;;;;;;;;;;;;27.64;43.47;94005.34;5055407;28;7273;-63
2023/10/14 01:15:29;;;;;;;;;;;;;;;27.64;42.86;94004.63;5055749;28;8430;-63
2023/10/14 01:18:21;;;;;;;;;;;;;;;27.63;43.21;94014.91;5055303;28;7037;-63
2023/10/14 01:20:51;;;;;;;;;;;;;;;27.63;42.49;94025.22;4995512;28;8970;-63
2023/10/14 01:23:29;;;;;;;;;;;;;;;27.62;42.93;94032.03;4988873;28;9120;-63
2023/10/14 01:26:04;;;;;;;;;;;;;;;27.62;43.64;94016.19;4979991;28;6999;-63
2023/10/14 01:28:58;;;;;;;;;;;;;;;27.62;43.21;94009.94;5000914;28;9445;-62
2023/10/14 01:31:58;;;;;;;;;;;;;;;27.61;43.03;94013.97;5013880;28;7270;-64
2023/10/14 01:34:31;;;;;;;;;;;;;;;27.61;43.00;94016.72;4979495;28;9249;-63
2023/10/14 01:37:27;;;;;;;;;;;;;;;27.60;43.42;94007.69;5013784;28;7079;-62
2023/10/14 01:43:36;;;;;;;;;;;;;;;27.60;42.84;94002.16;4891021;29;7127;-63
2023/10/14 01:46:09;;;;;;;;;;;;;;;27.60;42.90;93998.66;4806646;29;7282;-63
2023/10/14 01:48:38;;;;;;;;;;;;;;;27.60;43.18;93996.63;4821708;29;7248;-62
2023/10/14 01:51:06;;;;;;;;;;;;;;;27.61;43.38;93981.56;4824244;29;7009;-63
2023/10/14 01:53:32;;;;;;;;;;;;;;;27.60;43.14;93990.34;4820671;29;7523;-63
2023/10/14 01:56:06;;;;;;;;;;;;;;;27.58;43.14;93990.91;4809441;29;6970;-63
2023/10/14 01:58:34;;;;;;;;;;;;;;;27.57;42.87;93975.63;4841128;29;7149;-63
2023/10/14 02:03:46;;;;;;;;;;;;;;;27.58;43.31;93977.09;4853036;29;7254;-56
2023/10/14 02:06:31;;;;;;;;;;;;;;;27.58;42.91;93985.38;4841860;29;9134;-56
2023/10/14 02:09:29;;;;;;;;;;;;;;;27.58;43.06;93966.03;4861857;29;8719;-56
2023/10/14 02:12:06;;;;;;;;;;;;;;;27.57;43.07;93961.81;4805536;29;9026;-57
2023/10/14 02:14:57;;;;;;;;;;;;;;;27.56;42.98;93981.66;4806022;29;9575;-56
2023/10/14 02:17:24;;;;;;;;;;;;;;;27.54;43.15;93973.16;4843262;29;7266;-56
2023/10/14 02:20:09;;;;;;;;;;;;;;;27.56;43.37;93965.06;4878695;29;9076;-57
2023/10/14 02:22:38;;;;;;;;;;;;;;;27.52;42.75;93954.38;4946558;28;7457;-57
2023/10/14 02:25:05;;;;;;;;;;;;;;;27.55;43.02;93955.31;4970932;28;7349;-56
2023/10/14 02:27:31;;;;;;;;;;;;;;;27.53;42.84;93950.31;4945795;28;9695;-57
2023/10/14 02:29:57;;;;;;;;;;;;;;;27.55;43.17;93952.56;4970430;28;7004;-56
2023/10/14 02:32:27;;;;;;;;;;;;;;;27.56;43.48;93949.25;4953015;28;7241;-56
2023/10/14 02:34:52;;;;;;;;;;;;;;;27.52;42.96;93940.56;4960818;28;7008;-57
2023/10/14 02:37:21;;;;;;;;;;;;;;;27.54;42.79;93943.53;4943169;28;7367;-57
2023/10/14 02:39:58;;;;;;;;;;;;;;;27.55;43.37;93947.78;4957764;28;6986;-57
2023/10/14 02:42:57;;;;;;;;;;;;;;;27.51;42.92;93943.84;4959427;28;7256;-56
2023/10/14 02:45:25;;;;;;;;;;;;;;;27.52;43.32;93943.31;4945583;28;8865;-56
2023/10/14 02:48:01;;;;;;;;;;;;;;;27.52;43.15;93937.78;4988740;28;7224;-56
2023/10/14 02:50:27;;;;;;;;;;;;;;;27.52;43.04;93943.31;5054285;28;7416;-56
2023/10/14 02:53:01;;;;;;;;;;;;;;;27.49;42.93;93944.38;5062367;28;7245;-56
2023/10/14 02:55:50;;;;;;;;;;;;;;;27.50;43.08;93950.66;5046370;28;8565;-56
2023/10/14 02:58:21;;;;;;;;;;;;;;;27.53;43.30;93941.31;5055803;28;7025;-56
2023/10/14 03:00:57;;;;;;;;;;;;;;;27.51;43.23;93933.53;5043841;28;7430;-56
2023/10/14 03:03:24;;;;;;;;;;;;;;;27.52;43.34;93928.75;5061575;28;7414;-57
2023/10/14 03:06:08;;;;;;;;;;;;;;;27.50;42.98;93932.06;5076346;28;7362;-57
2023/10/14 03:08:57;;;;;;;;;;;;;;;27.50;43.20;93928.53;5072746;28;8698;-56
2023/10/14 03:11:26;;;;;;;;;;;;;;;27.50;42.79;93926.53;5057053;28;7124;-56
2023/10/14 03:13:56;;;;;;;;;;;;;;;27.48;43.41;93928.34;5058970;28;7473;-61
2023/10/14 03:16:29;;;;;;;;;;;;;;;27.48;42.89;93934.63;5063202;28;7268;-61
2023/10/14 03:19:03;;;;;;;;;;;;;;;27.47;42.97;93935.88;5053803;28;7155;-61
2023/10/14 03:21:58;;;;;;;;;;;;;;;27.49;43.18;93954.69;5055469;28;7248;-61
2023/10/14 03:24:26;;;;;;;;;;;;;;;27.48;42.49;93955.97;5070830;28;7160;-61
2023/10/14 03:27:00;;;;;;;;;;;;;;;27.48;43.04;93950.44;5059140;28;7509;-61
2023/10/14 03:29:36;;;;;;;;;;;;;;;27.45;43.15;93945.97;5074978;28;9055;-61
2023/10/14 03:32:12;;;;;;;;;;;;;;;27.45;42.82;93941.19;5071440;28;8760;-61
2023/10/14 03:34:42;;;;;;;;;;;;;;;27.48;42.86;93944.91;5057500;28;9149;-61
2023/10/14 03:37:25;;;;;;;;;;;;;;;27.47;43.15;93944.16;5083178;28;8962;-61
2023/10/14 03:42:51;;;;;;;;;;;;;;;27.45;43.23;93941.19;5066825;28;7249;-61
2023/10/14 03:45:22;;;;;;;;;;;;;;;27.47;43.37;93929.63;5057693;28;7665;-61
2023/10/14 03:48:29;;;;;;;;;;;;;;;27.46;42.88;93933.66;5070162;28;7102;-61
2023/10/14 03:51:02;;;;;;;;;;;;;;;27.44;43.08;93925.91;4988618;28;7310;-61
2023/10/14 03:53:31;;;;;;;;;;;;;;;27.44;42.91;93920.38;5004118;28;7644;-61
2023/10/14 03:56:03;;;;;;;;;;;;;;;27.43;43.02;93921.66;4996474;28;9158;-61
2023/10/14 03:58:31;;;;;;;;;;;;;;;27.44;43.35;93920.38;4999279;28;9219;-61
2023/10/14 04:01:13;;;;;;;;;;;;;;;27.43;43.00;93918.16;4982138;28;8713;-61
2023/10/14 04:03:39;;;;;;;;;;;;;;;27.44;43.54;93906.59;4992473;28;7415;-61
2023/10/14 04:06:28;;;;;;;;;;;;;;;27.44;42.43;93923.16;4986798;28;7262;-61
2023/10/14 04:09:10;;;;;;;;;;;;;;;27.45;42.90;93934.91;4986578;28;7504;-61
2023/10/14 04:11:59;;;;;;;;;;;;;;;27.44;42.91;93931.44;4995145;28;6998;-62
2023/10/14 04:14:29;;;;;;;;;;;;;;;27.44;42.59;93934.19;4986207;28;7285;-61
2023/10/14 04:19:57;;;;;;;;;;;;;;;27.40;43.19;93939.31;4992374;28;7262;-61
2023/10/14 04:22:31;;;;;;;;;;;;;;;27.41;42.99;93940.78;4999666;28;6994;-61
2023/10/14 04:33:19;;;;;;;;;;;;;;;27.42;43.18;93938.78;5058616;28;7525;-62
2023/10/14 04:36:08;;;;;;;;;;;;;;;27.40;42.88;93939.31;5057660;28;7199;-62
2023/10/14 04:38:42;;;;;;;;;;;;;;;27.39;43.07;93932.28;5068719;28;9347;-62
2023/10/14 04:41:45;;;;;;;;;;;;;;;27.41;43.29;93942.78;5036481;28;7114;-62
2023/10/14 04:44:12;;;;;;;;;;;;;;;27.39;42.73;93940.56;5049976;28;7519;-62
2023/10/14 04:47:01;;;;;;;;;;;;;;;27.39;43.18;93943.34;5060895;28;7240;-62
2023/10/14 04:49:36;;;;;;;;;;;;;;;27.39;43.39;93939.81;5069644;28;9088;-62
2023/10/14 04:52:08;;;;;;;;;;;;;;;27.39;42.91;93957.16;5059998;28;11018;-63
2023/10/14 04:55:21;;;;;;;;;;;;;;;27.40;43.10;93961.41;5045032;28;8968;-62
2023/10/14 05:01:01;;;;;;;;;;;;;;;27.39;43.26;93970.97;5064561;28;7386;-62
2023/10/14 05:03:44;;;;;;;;;;;;;;;27.38;43.14;93971.50;5030968;28;8861;-62
2023/10/14 05:06:30;;;;;;;;;;;;;;;27.37;43.11;93986.56;5018659;28;7187;-62
2023/10/14 05:09:09;;;;;;;;;;;;;;;27.37;43.20;93978.28;5030586;28;8721;-62
2023/10/14 05:11:36;;;;;;;;;;;;;;;27.37;42.98;93987.31;5030546;28;7355;-62
2023/10/14 05:14:16;;;;;;;;;;;;;;;27.37;43.17;93995.59;5027601;28;7333;-62
2023/10/14 05:17:14;;;;;;;;;;;;;;;27.37;43.21;93987.31;5014199;28;7215;-62
2023/10/14 05:19:54;;;;;;;;;;;;;;;27.35;42.95;93992.63;5014823;28;9097;-62
2023/10/14 05:22:23;;;;;;;;;;;;;;;27.36;43.28;93994.09;5030714;28;9143;-62
2023/10/14 05:25:04;;;;;;;;;;;;;;;27.36;42.80;94002.38;5013922;28;7201;-62
2023/10/14 05:30:34;;;;;;;;;;;;;;;27.36;42.78;94010.69;5012859;28;7114;-62
2023/10/14 05:33:21;;;;;;;;;;;;;;;27.37;43.26;94012.19;5022383;28;9107;-62
2023/10/14 05:36:05;;;;;;;;;;;;;;;27.36;43.57;94016.19;5004764;28;6998;-62
2023/10/14 05:38:56;;;;;;;;;;;;;;;27.36;42.90;94016.19;5024774;28;7248;-62
2023/10/14 05:41:58;;;;;;;;;;;;;;;27.34;43.13;94029.03;5053262;28;7208;-62
2023/10/14 05:44:31;;;;;;;;;;;;;;;27.35;42.87;94044.31;5013173;28;7671;-62
2023/10/14 05:47:19;;;;;;;;;;;;;;;27.34;43.35;94051.13;5030318;28;7397;-62
2023/10/14 05:50:15;;;;;;;;;;;;;;;27.35;43.29;94056.16;5036665;28;7242;-62
2023/10/14 05:52:55;;;;;;;;;;;;;;;27.34;43.15;94049.09;4967904;28;9569;-62
2023/10/14 05:55:41;;;;;;;;;;;;;;;27.34;43.30;94051.88;4945927;28;9074;-62
2023/10/14 05:58:16;;;;;;;;;;;;;;;27.34;42.92;94054.63;4949615;28;9073;-63
2023/10/14 06:00:45;;;;;;;;;;;;;;;27.36;43.05;94065.19;4959092;28;7232;-63
2023/10/14 06:03:49;;;;;;;;;;;;;;;27.35;43.25;94061.69;4959077;28;6982;-63
2023/10/14 06:06:24;;;;;;;;;;;;;;;27.32;43.32;94065.47;4917212;29;7364;-62
2023/10/14 06:09:21;;;;;;;;;;;;;;;27.35;43.20;94077.47;4896867;29;9722;-62
2023/10/14 06:11:47;;;;;;;;;;;;;;;27.35;43.25;94080.22;4872521;29;6987;-62
2023/10/14 06:14:15;;;;;;;;;;;;;;;27.33;43.35;94078.00;4864075;29;6985;-62
2023/10/14 06:17:14;;;;;;;;;;;;;;;27.34;43.02;94090.53;4876227;29;7219;-62
2023/10/14 06:19:42;;;;;;;;;;;;;;;27.34;43.37;94090.53;4869721;29;9008;-62
2023/10/14 06:22:18;;;;;;;;;;;;;;;27.33;42.92;94089.06;4887848;29;9169;-62
2023/10/14 06:24:47;;;;;;;;;;;;;;;27.29;43.10;94083.09;4881901;29;9509;-62
2023/10/14 06:27:22;;;;;;;;;;;;;;;27.29;43.15;94098.91;4897549;29;9045;-62
2023/10/14 06:29:48;;;;;;;;;;;;;;;27.32;42.62;94090.31;4895820;29;7139;-62
2023/10/14 06:32:15;;;;;;;;;;;;;;;27.31;43.18;94090.84;4890829;29;9108;-62
2023/10/14 06:34:44;;;;;;;;;;;;;;;27.32;43.18;94098.59;4922478;29;7153;-63
2023/10/14 06:37:11;;;;;;;;;;;;;;;27.29;43.25;94093.41;4899587;29;9013;-62
2023/10/14 06:39:41;;;;;;;;;;;;;;;27.29;43.23;94099.66;4927618;28;7002;-62
2023/10/14 06:42:07;;;;;;;;;;;;;;;27.29;43.40;94099.66;5000278;28;9383;-62
2023/10/14 06:44:41;;;;;;;;;;;;;;;27.29;42.86;94102.44;4962022;28;6967;-61
2023/10/14 06:47:08;;;;;;;;;;;;;;;27.30;42.66;94100.41;4958669;28;7267;-61
2023/10/14 06:49:41;;;;;;;;;;;;;;;27.31;43.32;94104.66;5064871;28;9191;-62
2023/10/14 06:52:11;;;;;;;;;;;;;;;27.31;42.94;94110.19;5042623;28;7286;-61
2023/10/14 06:54:41;;;;;;;;;;;;;;;27.29;43.14;94110.72;5052002;28;7090;-62
2023/10/14 06:57:10;;;;;;;;;;;;;;;27.29;43.19;94113.47;5068827;28;9109;-61
2023/10/14 06:59:38;;;;;;;;;;;;;;;27.29;43.25;94127.28;5054510;28;7254;-61
2023/10/14 07:02:18;;;;;;;;;;;;;;;27.27;43.01;94112.50;5073161;28;8500;-61
2023/10/14 07:04:59;;;;;;;;;;;;;;;27.32;42.62;94120.69;5067585;28;9166;-61
2023/10/14 07:07:27;;;;;;;;;;;;;;;27.33;43.37;94119.44;5056115;28;7029;-62
2023/10/14 07:09:54;;;;;;;;;;;;;;;27.34;43.16;94139.50;5063796;28;9384;-61
2023/10/14 07:12:47;;;;;;;;;;;;;;;27.34;42.92;94137.47;5080046;28;7263;-61
2023/10/14 07:15:26;;;;;;;;;;;;;;;27.36;43.12;94137.00;5021469;28;7978;-62
2023/10/14 07:17:54;;;;;;;;;;;;;;;27.36;43.06;94148.75;5018757;28;7104;-61
2023/10/14 07:20:23;;;;;;;;;;;;;;;27.35;43.11;94141.00;5010738;28;6995;-61
2023/10/14 07:22:49;;;;;;;;;;;;;;;27.35;42.79;94139.00;5034926;28;8741;-61
2023/10/14 07:25:32;;;;;;;;;;;;;;;27.35;42.86;94133.47;5041537;28;9169;-62
2023/10/14 07:28:35;;;;;;;;;;;;;;;27.38;43.02;94124.13;5032629;28;9028;-62
2023/10/14 07:31:04;;;;;;;;;;;;;;;27.38;43.10;94135.16;5026442;28;7024;-61
2023/10/14 07:33:33;;;;;;;;;;;;;;;27.36;43.12;94123.91;5015817;28;7560;-62
2023/10/14 07:36:06;;;;;;;;;;;;;;;27.37;42.69;94125.41;5016026;28;9054;-62
2023/10/14 07:38:44;;;;;;;;;;;;;;;27.36;42.66;94123.91;5012400;28;7306;-61
2023/10/14 07:45:17;;;;;;;;;;;;;;;27.37;42.86;94133.69;4992446;28;7065;-62
2023/10/14 07:48:08;;;;;;;;;;;;;;;27.33;42.62;94122.19;4976006;28;9142;-61
2023/10/14 07:51:07;;;;;;;;;;;;;;;27.35;42.81;94127.97;5000494;28;9067;-61
2023/10/14 07:53:36;;;;;;;;;;;;;;;27.35;42.97;94125.19;4937768;28;7534;-61
2023/10/14 07:56:05;;;;;;;;;;;;;;;27.36;42.24;94114.91;4953519;28;7210;-62
2023/10/14 07:58:42;;;;;;;;;;;;;;;27.36;42.86;94120.44;4937468;28;9299;-62
2023/10/14 08:01:22;;;;;;;;;;;;;;;27.37;42.79;94121.91;4953730;28;7090;-62
2023/10/14 08:03:56;;;;;;;;;;;;;;;27.35;42.99;94116.13;4937215;28;9163;-62
2023/10/14 08:06:34;;;;;;;;;;;;;;;27.32;42.71;94128.22;4953782;28;7200;-61
2023/10/14 08:09:28;;;;;;;;;;;;;;;27.35;42.69;94116.13;4940513;28;7205;-62
2023/10/14 08:11:57;;;;;;;;;;;;;;;27.32;42.79;94106.13;4945848;28;7020;-62
2023/10/14 08:14:34;;;;;;;;;;;;;;;27.31;42.58;94107.41;4969581;28;8863;-62
2023/10/14 08:17:00;;;;;;;;;;;;;;;27.35;43.00;94116.13;4952861;28;7267;-62
2023/10/14 08:19:40;;;;;;;;;;;;;;;27.33;42.50;94105.63;4944090;28;9109;-62
2023/10/14 08:22:08;;;;;;;;;;;;;;;27.36;42.94;94101.09;4975591;28;7238;-61
2023/10/14 08:24:39;;;;;;;;;;;;;;;27.35;42.68;94105.88;4994757;28;6980;-62
2023/10/14 08:27:27;;;;;;;;;;;;;;;27.36;42.79;94095.56;5011587;28;9188;-61
2023/10/14 08:30:01;;;;;;;;;;;;;;;27.35;42.59;94089.28;5043491;28;7320;-62
2023/10/14 08:32:37;;;;;;;;;;;;;;;27.35;42.77;94086.53;5054141;28;8433;-61
2023/10/14 08:35:29;;;;;;;;;;;;;;;27.37;42.51;94086.00;5053619;28;9205;-61
2023/10/14 08:38:10;;;;;;;;;;;;;;;27.37;42.51;94088.75;5010783;28;8916;-61
2023/10/14 08:40:36;;;;;;;;;;;;;;;27.36;42.97;94087.28;5014728;28;7316;-62
2023/10/14 08:43:16;;;;;;;;;;;;;;;27.33;43.28;94085.53;5016726;28;9166;-61
2023/10/14 08:46:14;;;;;;;;;;;;;;;27.34;42.60;94085.00;5038085;28;7080;-61
2023/10/14 08:48:52;;;;;;;;;;;;;;;27.35;42.57;94086.53;4930837;29;7231;-62
2023/10/14 08:51:50;;;;;;;;;;;;;;;27.37;42.89;94083.22;4922443;29;9074;-61
2023/10/14 08:54:27;;;;;;;;;;;;;;;27.34;42.71;94079.47;4908269;29;6999;-61
2023/10/14 08:56:54;;;;;;;;;;;;;;;27.36;42.42;94082.47;4914063;29;9122;-62
2023/10/14 08:59:51;;;;;;;;;;;;;;;27.37;42.96;94080.47;4895954;29;8428;-62
2023/10/14 09:02:37;;;;;;;;;;;;;;;27.36;42.76;94082.47;4844366;29;7570;-62
2023/10/14 09:05:16;;;;;;;;;;;;;;;27.36;42.55;94076.97;4855007;29;7386;-62
2023/10/14 09:07:51;;;;;;;;;;;;;;;27.32;42.65;94082.03;4868135;29;7186;-63
2023/10/14 09:10:20;;;;;;;;;;;;;;;27.33;43.24;94082.78;4858846;29;9247;-62
2023/10/14 09:13:33;;;;;;;;;;;;;;;27.32;43.00;94076.50;4858663;29;8868;-62
2023/10/14 09:16:32;;;;;;;;;;;;;;;27.31;42.92;94074.28;4882202;29;7295;-62
2023/10/14 09:19:01;;;;;;;;;;;;;;;27.28;42.87;94078.84;4857697;29;7444;-63
2023/10/14 09:21:28;;;;;;;;;;;;;;;27.30;42.59;94072.78;4858102;29;7218;-62
2023/10/14 09:24:08;;;;;;;;;;;;;;;27.28;42.85;94065.03;4858890;29;6970;-62
2023/10/14 09:26:46;;;;;;;;;;;;;;;27.30;43.30;94065.25;4895384;29;8689;-63
2023/10/14 09:29:28;;;;;;;;;;;;;;;27.27;42.99;94057.28;4895627;29;8837;-62
2023/10/14 09:32:15;;;;;;;;;;;;;;;27.30;43.17;94047.94;4952219;29;7428;-62
2023/10/14 09:35:01;;;;;;;;;;;;;;;27.28;43.25;94051.22;4938026;28;7260;-62
2023/10/14 09:37:43;;;;;;;;;;;;;;;27.31;43.65;94054.94;4943678;28;7160;-62
2023/10/14 09:40:13;;;;;;;;;;;;;;;27.30;43.16;94047.94;5024518;28;7426;-62
2023/10/14 09:42:44;;;;;;;;;;;;;;;27.28;43.12;94045.69;5023538;28;7351;-62
2023/10/14 09:45:13;;;;;;;;;;;;;;;27.28;42.57;94047.72;5028319;28;9193;-62
2023/10/14 09:47:52;;;;;;;;;;;;;;;27.32;42.98;94045.38;5024672;28;7212;-63
2023/10/14 09:50:29;;;;;;;;;;;;;;;27.30;43.16;94039.66;5021068;28;7368;-63
2023/10/14 09:53:06;;;;;;;;;;;;;;;27.26;43.07;94026.16;5014562;28;7252;-63
2023/10/14 09:55:32;;;;;;;;;;;;;;;27.29;43.69;94035.41;5041396;28;7301;-62
2023/10/14 09:58:30;;;;;;;;;;;;;;;27.28;43.27;94029.13;5064994;28;7230;-63
2023/10/14 10:01:00;;;;;;;;;;;;;;;27.26;43.11;94028.94;5034005;28;7188;-63
2023/10/14 10:03:32;;;;;;;;;;;;;;;27.26;43.08;94023.41;5018327;28;9402;-62
2023/10/14 10:06:47;;;;;;;;;;;;;;;27.29;42.95;94016.06;5003431;28;9292;-63
2023/10/14 10:09:42;;;;;;;;;;;;;;;27.29;43.21;94021.59;4958555;28;7212;-62
2023/10/14 10:12:11;;;;;;;;;;;;;;;27.28;42.99;94031.16;4975073;28;7246;-63
2023/10/14 10:15:01;;;;;;;;;;;;;;;27.30;42.53;94034.13;4958699;28;7165;-56
2023/10/14 10:17:38;;;;;;;;;;;;;;;27.31;43.26;94036.38;4973216;28;7284;-56
2023/10/14 10:20:11;;;;;;;;;;;;;;;27.32;43.37;94037.09;4955820;28;7278;-56
2023/10/14 10:23:02;;;;;;;;;;;;;;;27.34;43.08;94038.06;4969768;28;7098;-56
2023/10/14 10:25:49;;;;;;;;;;;;;;;27.34;42.90;94026.28;4973379;28;7282;-56
2023/10/14 10:28:34;;;;;;;;;;;;;;;27.37;43.13;94017.69;4974529;28;8784;-56
2023/10/14 10:31:16;;;;;;;;;;;;;;;27.37;42.93;94014.94;4974678;28;7719;-55
2023/10/14 10:33:52;;;;;;;;;;;;;;;27.37;43.04;94014.19;4949162;28;7030;-55
2023/10/14 10:36:34;;;;;;;;;;;;;;;27.36;42.93;94010.69;4972434;28;9185;-55
2023/10/14 10:39:17;;;;;;;;;;;;;;;27.34;42.84;93999.38;5011067;28;7069;-55
2023/10/14 10:41:50;;;;;;;;;;;;;;;27.36;42.95;94004.44;4994747;28;7006;-55
2023/10/14 10:44:33;;;;;;;;;;;;;;;27.35;43.34;94005.66;5016250;28;9226;-55
2023/10/14 10:47:01;;;;;;;;;;;;;;;27.32;43.04;94004.69;5038217;28;7446;-55
2023/10/14 10:49:53;;;;;;;;;;;;;;;27.35;43.31;94009.19;5061510;28;7050;-56
2023/10/14 10:52:40;;;;;;;;;;;;;;;27.36;42.70;94021.00;5089754;28;8762;-56
2023/10/14 10:55:11;;;;;;;;;;;;;;;27.34;43.23;94018.72;5048321;28;7104;-56
2023/10/14 10:58:00;;;;;;;;;;;;;;;27.36;42.91;94032.78;5065925;28;9161;-55
2023/10/14 11:00:40;;;;;;;;;;;;;;;27.34;43.19;94029.78;5038041;28;9061;-56
2023/10/14 11:03:14;;;;;;;;;;;;;;;27.36;43.01;94027.25;5073732;28;7375;-55
2023/10/14 11:05:44;;;;;;;;;;;;;;;27.38;43.21;94032.25;5054948;28;7966;-56
2023/10/14 11:08:15;;;;;;;;;;;;;;;27.39;42.88;94034.47;5071655;28;6872;-56
2023/10/14 11:10:44;;;;;;;;;;;;;;;27.40;43.15;94040.75;5089651;28;9390;-55
2023/10/14 11:13:16;;;;;;;;;;;;;;;27.43;43.31;94021.09;5063358;28;7101;-55
2023/10/14 11:16:14;;;;;;;;;;;;;;;27.43;43.08;94023.84;5040553;28;7279;-55
2023/10/14 11:18:51;;;;;;;;;;;;;;;27.43;42.68;94026.63;5023488;28;9456;-56
2023/10/14 11:21:18;;;;;;;;;;;;;;;27.45;42.98;94026.06;5015818;28;9907;-55
2023/10/14 11:23:47;;;;;;;;;;;;;;;27.45;42.93;94024.06;5016154;28;8763;-57
2023/10/14 11:26:31;;;;;;;;;;;;;;;27.47;42.71;94015.97;5032199;28;7311;-57
2023/10/14 11:29:10;;;;;;;;;;;;;;;27.46;43.05;94020.03;5030713;28;7656;-57
2023/10/14 11:31:45;;;;;;;;;;;;;;;27.47;42.71;94026.31;5032453;28;9361;-57
2023/10/14 11:34:21;;;;;;;;;;;;;;;27.47;42.80;94021.50;5025162;28;7236;-56
2023/10/14 11:36:58;;;;;;;;;;;;;;;27.45;42.95;94018.53;5040229;28;7104;-57
2023/10/14 11:39:28;;;;;;;;;;;;;;;27.45;42.54;94024.06;5022853;28;9113;-57
2023/10/14 11:42:05;;;;;;;;;;;;;;;27.44;42.75;94008.78;5032560;28;9496;-56
2023/10/14 11:44:48;;;;;;;;;;;;;;;27.42;43.14;94013.34;5023864;28;7670;-57
2023/10/14 11:47:19;;;;;;;;;;;;;;;27.44;42.69;94010.78;5031482;28;7034;-57
2023/10/14 11:50:08;;;;;;;;;;;;;;;27.47;42.20;94020.78;5035856;28;9572;-56
2023/10/14 11:52:34;;;;;;;;;;;;;;;27.47;42.73;94020.78;5006513;28;9707;-57
2023/10/14 11:55:04;;;;;;;;;;;;;;;27.46;42.95;94024.81;5049082;28;6977;-57
2023/10/14 11:57:32;;;;;;;;;;;;;;;27.44;42.92;94022.59;5055086;28;7068;-57
2023/10/14 12:00:10;;;;;;;;;;;;;;;27.46;42.76;94024.81;5081323;28;9159;-56
2023/10/14 12:02:40;;;;;;;;;;;;;;;27.46;43.11;94022.78;5072719;28;7081;-57
2023/10/14 12:05:20;;;;;;;;;;;;;;;27.44;42.92;94027.38;5053491;28;8717;-56
2023/10/14 12:07:54;;;;;;;;;;;;;;;27.44;42.86;94025.34;5052188;28;7628;-56
2023/10/14 12:10:32;;;;;;;;;;;;;;;27.47;42.75;94021.50;5078306;28;9258;-56
2023/10/14 12:13:08;;;;;;;;;;;;;;;27.45;42.83;94032.34;5053603;28;7356;-57
2023/10/14 12:15:35;;;;;;;;;;;;;;;27.50;42.79;94039.78;5069352;28;6983;-57
2023/10/14 12:18:04;;;;;;;;;;;;;;;27.48;42.70;94045.09;5052863;28;7000;-57
2023/10/14 12:20:48;;;;;;;;;;;;;;;27.47;42.88;94048.41;5085201;28;7472;-56
2023/10/14 12:23:33;;;;;;;;;;;;;;;27.50;42.67;94042.56;5069319;28;9207;-56
2023/10/14 12:26:01;;;;;;;;;;;;;;;27.48;42.63;94038.84;5061291;28;7322;-57
2023/10/14 12:28:30;;;;;;;;;;;;;;;27.45;42.80;94040.63;5053659;28;7308;-57
2023/10/14 12:31:12;;;;;;;;;;;;;;;27.47;42.58;94035.31;5060007;28;7172;-56
2023/10/14 12:33:46;;;;;;;;;;;;;;;27.48;43.30;94044.34;5059080;28;7170;-62
2023/10/14 12:36:17;;;;;;;;;;;;;;;27.43;42.74;94014.81;5075577;28;7270;-62
2023/10/14 12:38:44;;;;;;;;;;;;;;;27.44;42.83;94022.59;5059313;28;7152;-62
2023/10/14 12:41:24;;;;;;;;;;;;;;;27.44;42.28;94025.34;5036195;28;7036;-62
2023/10/14 12:44:00;;;;;;;;;;;;;;;27.41;43.25;94026.41;5044868;28;7313;-61
2023/10/14 12:46:33;;;;;;;;;;;;;;;27.45;42.97;94034.38;5055962;28;8274;-61
2023/10/14 12:49:02;;;;;;;;;;;;;;;27.42;42.72;94027.16;5063572;28;7084;-62
2023/10/14 12:51:37;;;;;;;;;;;;;;;27.43;42.69;94029.38;5061777;28;7417;-62
2023/10/14 12:54:08;;;;;;;;;;;;;;;27.45;42.64;94032.34;5084263;28;9410;-62
2023/10/14 12:56:40;;;;;;;;;;;;;;;27.43;43.33;94025.88;5072553;28;7324;-61
2023/10/14 12:59:41;;;;;;;;;;;;;;;27.47;42.29;94023.56;5062091;28;9105;-61
2023/10/14 13:02:17;;;;;;;;;;;;;;;27.45;42.99;94018.53;5014967;28;7000;-62
2023/10/14 13:04:52;;;;;;;;;;;;;;;27.41;42.78;94022.88;5011321;28;9465;-61
2023/10/14 13:07:25;;;;;;;;;;;;;;;27.44;42.73;94013.56;5030465;28;9146;-61
2023/10/14 13:10:09;;;;;;;;;;;;;;;27.40;42.95;94000.06;5021365;28;9016;-62
2023/10/14 13:12:52;;;;;;;;;;;;;;;27.40;42.86;94010.38;5025060;28;7233;-61
2023/10/14 13:15:36;;;;;;;;;;;;;;;27.42;42.92;94005.06;5021125;28;7037;-61
2023/10/14 13:18:05;;;;;;;;;;;;;;;27.40;42.80;94002.09;5031360;28;7320;-62
2023/10/14 13:20:47;;;;;;;;;;;;;;;27.43;42.77;94001.75;5035462;28;8740;-61
2023/10/14 13:23:26;;;;;;;;;;;;;;;27.39;42.86;94000.59;5037590;28;7215;-62
2023/10/14 13:26:02;;;;;;;;;;;;;;;27.43;42.81;94001.75;5034691;28;6996;-61
2023/10/14 13:28:43;;;;;;;;;;;;;;;27.43;42.78;94003.78;5029200;28;7165;-61
2023/10/14 13:31:12;;;;;;;;;;;;;;;27.41;42.84;94011.84;5032087;28;7187;-61
2023/10/14 13:33:48;;;;;;;;;;;;;;;27.41;42.59;94003.56;5034995;28;8585;-61
2023/10/14 13:36:20;;;;;;;;;;;;;;;27.40;43.11;94013.88;5014690;28;7332;-61
2023/10/14 13:39:07;;;;;;;;;;;;;;;27.40;43.09;94015.91;5054373;28;7499;-61
2023/10/14 13:42:05;;;;;;;;;;;;;;;27.37;43.14;94028.75;5045742;28;8396;-61
2023/10/14 13:44:46;;;;;;;;;;;;;;;27.37;42.89;94023.22;5038444;28;8832;-56
2023/10/14 13:47:29;;;;;;;;;;;;;;;27.40;42.75;94035.97;5033799;28;7220;-56
2023/10/14 13:50:11;;;;;;;;;;;;;;;27.39;43.03;94026.19;5043391;28;9118;-56
2023/10/14 13:52:51;;;;;;;;;;;;;;;27.36;43.01;94021.72;5035578;28;7318;-56
2023/10/14 13:55:19;;;;;;;;;;;;;;;27.37;42.80;94028.75;5047756;28;6990;-56
2023/10/14 13:58:16;;;;;;;;;;;;;;;27.39;43.02;94053.06;5043204;28;9114;-56
2023/10/14 14:00:56;;;;;;;;;;;;;;;27.39;42.64;94070.38;4997323;28;9215;-57
2023/10/14 14:03:22;;;;;;;;;;;;;;;27.39;42.87;94066.88;4997176;28;9338;-57
2023/10/14 14:06:05;;;;;;;;;;;;;;;27.37;42.53;94059.13;4997756;28;7436;-57
2023/10/14 14:08:36;;;;;;;;;;;;;;;27.38;42.94;94054.34;5004234;28;7272;-57
2023/10/14 14:11:03;;;;;;;;;;;;;;;27.42;42.76;94063.06;5003515;28;6990;-57
2023/10/14 14:13:32;;;;;;;;;;;;;;;27.40;42.85;94071.88;5015078;28;8595;-56
2023/10/14 14:16:01;;;;;;;;;;;;;;;27.37;43.00;94077.72;5011136;28;7305;-56
2023/10/14 14:18:39;;;;;;;;;;;;;;;27.34;42.95;94067.72;5017362;28;7189;-56
2023/10/14 14:21:05;;;;;;;;;;;;;;;27.34;43.18;94076.72;5017451;28;7488;-56
2023/10/14 14:24:00;;;;;;;;;;;;;;;27.35;43.27;94081.00;5015054;28;7259;-56
2023/10/14 14:26:29;;;;;;;;;;;;;;;27.35;43.08;94088.50;4946660;28;9582;-56